CheckWX is a tool to help pilots better visualize weather data.  It is not intended as a substitute for an official pre-flight weather briefing.

21:13:24 UTC

KAEX TAF
Alexandria International Airport
Alexandria, Louisiana, USA
KAEX 191924Z 1919/2018 12006KT P6SM -RA SCT009 BKN035 TEMPO 1919/1922 BKN009 FM200200 11007KT P6SM VCSH BKN025 BKN250 FM200500 11009KT P6SM OVC009

Sep-19@
19:00 UTC

Sep-19 @ 19:00 UTC

Sep-20@
02:00 UTC

Sep-20 @ 02:00 UTC

KAEX 191924Z 1919/2018 12006KT P6SM -RA SCT009 BKN035
Wind
  • 120° at 6 KTS
Conditions
Light Rain
Cloud Levels
  • Scattered at 900' AGL
  • Broken at 3,500' AGL

Sep-19@
19:00 UTC

Sep-19 @ 19:00 UTC

Sep-19@
22:00 UTC

Sep-19 @ 22:00 UTC

TEMPO 1919/1922 BKN009

Temporary

Temporary Changes expected for less than half the time period

Cloud Levels
  • Broken at 900' AGL

Sep-20@
02:00 UTC

Sep-20 @ 02:00 UTC

Sep-20@
05:00 UTC

Sep-20 @ 05:00 UTC

FM200200 11007KT P6SM VCSH BKN025 BKN250

From

From Standard forecast or significant change

Wind
  • 110° at 7 KTS
Cloud Levels
  • Broken at 2,500' AGL
  • Broken at 25,000' AGL

Sep-20@
05:00 UTC

Sep-20 @ 05:00 UTC

Sep-20@
18:00 UTC

Sep-20 @ 18:00 UTC

FM200500 11009KT P6SM OVC009

From

From Standard forecast or significant change

Wind
  • 110° at 9 KTS
Cloud Levels
  • Overcast at 900' AGL